< < Back
Terminal Aerodrome Forecast


Current Version              Previous Versions:   1  2  3  4  5  6  7  8  9  

Terminal Aerodrome Forecast

847
FTUS44 KBMX 311100
TAFMGM
TAF
KMGM 311121Z 3112/0112 33005KT P6SM SKC
     FM311700 30008KT P6SM SCT070
     FM311900 31015G24KT P6SM BKN040
     FM010500 31014KT P6SM SCT040=



Latest METAR

014
SAUS80 KWBC 311500 RRB
MTRMGM
METAR KMGM 311453Z 00000KT 10SM CLR 16/06 A3000 RMK AO2 SLP158 T01610061
50001


USA.gov is the U.S. government's official web portal to all federal, state and local government web resources and services.